sensor_id;sensor_type;location;lat;lon;timestamp;temperature;humidity
652;DHT22;310;48.490;9.200;2023-04-05T00:00:54;5.70;27.10
652;DHT22;310;48.490;9.200;2023-04-05T00:03:20;5.60;28.50
652;DHT22;310;48.490;9.200;2023-04-05T00:05:46;5.50;28.90
652;DHT22;310;48.490;9.200;2023-04-05T00:08:14;5.70;27.20
652;DHT22;310;48.490;9.200;2023-04-05T00:10:49;5.70;27.50
652;DHT22;310;48.490;9.200;2023-04-05T00:13:15;5.80;28.10
652;DHT22;310;48.490;9.200;2023-04-05T00:15:41;5.70;28.30
652;DHT22;310;48.490;9.200;2023-04-05T00:18:07;5.90;27.50
652;DHT22;310;48.490;9.200;2023-04-05T00:20:32;5.70;27.70
652;DHT22;310;48.490;9.200;2023-04-05T00:23:01;5.70;27.50
652;DHT22;310;48.490;9.200;2023-04-05T00:25:27;5.60;28.20
652;DHT22;310;48.490;9.200;2023-04-05T00:27:52;5.50;29.40
652;DHT22;310;48.490;9.200;2023-04-05T00:30:18;5.70;27.30
652;DHT22;310;48.490;9.200;2023-04-05T00:32:50;5.80;26.60
652;DHT22;310;48.490;9.200;2023-04-05T00:35:16;5.80;26.90
652;DHT22;310;48.490;9.200;2023-04-05T00:37:41;5.70;28.00
652;DHT22;310;48.490;9.200;2023-04-05T00:40:07;5.60;28.80
652;DHT22;310;48.490;9.200;2023-04-05T00:42:33;5.70;28.00
652;DHT22;310;48.490;9.200;2023-04-05T00:44:59;5.70;29.20
652;DHT22;310;48.490;9.200;2023-04-05T00:47:25;5.80;27.80
652;DHT22;310;48.490;9.200;2023-04-05T00:49:52;5.80;27.80
652;DHT22;310;48.490;9.200;2023-04-05T00:52:17;5.80;27.70
652;DHT22;310;48.490;9.200;2023-04-05T00:54:48;5.60;28.70
652;DHT22;310;48.490;9.200;2023-04-05T00:57:14;5.60;28.50
652;DHT22;310;48.490;9.200;2023-04-05T00:59:41;5.50;29.50
652;DHT22;310;48.490;9.200;2023-04-05T01:02:23;5.50;29.70
652;DHT22;310;48.490;9.200;2023-04-05T01:04:58;5.70;28.20
652;DHT22;310;48.490;9.200;2023-04-05T01:07:41;5.50;29.70
652;DHT22;310;48.490;9.200;2023-04-05T01:10:09;5.70;28.70
652;DHT22;310;48.490;9.200;2023-04-05T01:12:37;5.60;28.30
652;DHT22;310;48.490;9.200;2023-04-05T01:15:04;5.40;29.60
652;DHT22;310;48.490;9.200;2023-04-05T01:17:31;5.30;29.50
652;DHT22;310;48.490;9.200;2023-04-05T01:20:08;5.40;28.30
652;DHT22;310;48.490;9.200;2023-04-05T01:26:03;5.50;29.30
652;DHT22;310;48.490;9.200;2023-04-05T01:31:19;5.40;28.40
652;DHT22;310;48.490;9.200;2023-04-05T01:36:30;5.40;28.90
652;DHT22;310;48.490;9.200;2023-04-05T01:38:58;5.40;29.60
652;DHT22;310;48.490;9.200;2023-04-05T01:41:26;5.50;27.70
652;DHT22;310;48.490;9.200;2023-04-05T01:43:51;5.50;27.60
652;DHT22;310;48.490;9.200;2023-04-05T01:46:17;5.50;29.10
652;DHT22;310;48.490;9.200;2023-04-05T01:48:42;5.40;29.60
652;DHT22;310;48.490;9.200;2023-04-05T01:51:08;5.50;28.00
652;DHT22;310;48.490;9.200;2023-04-05T01:53:34;5.40;28.70
652;DHT22;310;48.490;9.200;2023-04-05T01:56:00;5.50;28.40
652;DHT22;310;48.490;9.200;2023-04-05T01:58:26;5.50;28.00
652;DHT22;310;48.490;9.200;2023-04-05T02:00:55;5.60;28.70
652;DHT22;310;48.490;9.200;2023-04-05T02:03:24;5.30;29.10
652;DHT22;310;48.490;9.200;2023-04-05T02:05:50;5.20;30.00
652;DHT22;310;48.490;9.200;2023-04-05T02:08:16;5.10;29.50
652;DHT22;310;48.490;9.200;2023-04-05T02:10:41;5.10;29.40
652;DHT22;310;48.490;9.200;2023-04-05T02:13:07;5.10;29.10
652;DHT22;310;48.490;9.200;2023-04-05T02:15:32;5.00;29.30
652;DHT22;310;48.490;9.200;2023-04-05T02:17:59;4.90;30.20
652;DHT22;310;48.490;9.200;2023-04-05T02:20:27;4.90;30.50
652;DHT22;310;48.490;9.200;2023-04-05T02:22:53;5.10;29.10
652;DHT22;310;48.490;9.200;2023-04-05T02:25:18;5.20;28.50
652;DHT22;310;48.490;9.200;2023-04-05T02:27:44;5.10;28.80
652;DHT22;310;48.490;9.200;2023-04-05T02:30:10;4.90;29.60
652;DHT22;310;48.490;9.200;2023-04-05T02:32:38;4.70;30.00
652;DHT22;310;48.490;9.200;2023-04-05T02:35:07;4.70;30.00
652;DHT22;310;48.490;9.200;2023-04-05T02:37:33;4.80;29.20
652;DHT22;310;48.490;9.200;2023-04-05T02:39:59;4.90;29.90
652;DHT22;310;48.490;9.200;2023-04-05T02:42:24;4.90;28.70
652;DHT22;310;48.490;9.200;2023-04-05T02:44:51;5.00;27.70
652;DHT22;310;48.490;9.200;2023-04-05T02:47:17;5.00;27.50
652;DHT22;310;48.490;9.200;2023-04-05T02:49:46;4.90;29.10
652;DHT22;310;48.490;9.200;2023-04-05T02:52:13;4.70;29.70
652;DHT22;310;48.490;9.200;2023-04-05T02:54:38;4.80;29.20
652;DHT22;310;48.490;9.200;2023-04-05T02:57:04;4.80;29.90
652;DHT22;310;48.490;9.200;2023-04-05T02:59:30;4.60;29.90
652;DHT22;310;48.490;9.200;2023-04-05T03:01:56;4.70;29.10
652;DHT22;310;48.490;9.200;2023-04-05T03:04:21;4.80;28.80
652;DHT22;310;48.490;9.200;2023-04-05T03:06:51;4.70;30.50
652;DHT22;310;48.490;9.200;2023-04-05T03:09:19;4.60;30.50
652;DHT22;310;48.490;9.200;2023-04-05T03:11:45;4.60;30.00
652;DHT22;310;48.490;9.200;2023-04-05T03:14:11;4.60;30.00
652;DHT22;310;48.490;9.200;2023-04-05T03:16:37;4.60;29.50
652;DHT22;310;48.490;9.200;2023-04-05T03:19:05;4.60;29.10
652;DHT22;310;48.490;9.200;2023-04-05T03:21:31;4.50;30.20
652;DHT22;310;48.490;9.200;2023-04-05T03:23:58;4.40;28.90
652;DHT22;310;48.490;9.200;2023-04-05T03:26:24;4.40;30.00
652;DHT22;310;48.490;9.200;2023-04-05T03:28:50;4.50;29.40
652;DHT22;310;48.490;9.200;2023-04-05T03:31:16;4.60;29.10
652;DHT22;310;48.490;9.200;2023-04-05T03:33:42;4.70;29.10
652;DHT22;310;48.490;9.200;2023-04-05T03:36:07;4.70;29.00
652;DHT22;310;48.490;9.200;2023-04-05T03:38:33;4.60;29.10
652;DHT22;310;48.490;9.200;2023-04-05T03:41:00;4.40;30.00
652;DHT22;310;48.490;9.200;2023-04-05T03:43:26;4.30;30.50
652;DHT22;310;48.490;9.200;2023-04-05T03:45:52;4.20;30.90
652;DHT22;310;48.490;9.200;2023-04-05T03:48:17;4.10;31.90
652;DHT22;310;48.490;9.200;2023-04-05T03:50:45;4.20;30.90
652;DHT22;310;48.490;9.200;2023-04-05T03:53:11;4.40;29.70
652;DHT22;310;48.490;9.200;2023-04-05T03:55:37;4.30;30.00
652;DHT22;310;48.490;9.200;2023-04-05T03:58:02;4.30;30.00
652;DHT22;310;48.490;9.200;2023-04-05T04:00:28;4.40;29.60
652;DHT22;310;48.490;9.200;2023-04-05T04:02:54;4.20;30.30
652;DHT22;310;48.490;9.200;2023-04-05T04:05:19;4.10;31.30
652;DHT22;310;48.490;9.200;2023-04-05T04:07:46;4.00;31.30
652;DHT22;310;48.490;9.200;2023-04-05T04:10:14;3.90;32.00
652;DHT22;310;48.490;9.200;2023-04-05T04:12:42;3.90;31.70
652;DHT22;310;48.490;9.200;2023-04-05T04:15:08;3.80;31.60
652;DHT22;310;48.490;9.200;2023-04-05T04:17:35;3.80;32.00
652;DHT22;310;48.490;9.200;2023-04-05T04:20:02;3.80;31.60
652;DHT22;310;48.490;9.200;2023-04-05T04:22:32;3.90;31.90
652;DHT22;310;48.490;9.200;2023-04-05T04:24:58;3.80;31.80
652;DHT22;310;48.490;9.200;2023-04-05T04:27:29;3.80;32.00
652;DHT22;310;48.490;9.200;2023-04-05T04:29:55;3.80;31.70
652;DHT22;310;48.490;9.200;2023-04-05T04:32:27;3.70;31.40
652;DHT22;310;48.490;9.200;2023-04-05T04:35:15;3.70;30.90
652;DHT22;310;48.490;9.200;2023-04-05T04:38:07;3.60;31.20
652;DHT22;310;48.490;9.200;2023-04-05T04:40:34;3.60;31.30
652;DHT22;310;48.490;9.200;2023-04-05T04:43:14;3.70;31.20
652;DHT22;310;48.490;9.200;2023-04-05T04:45:46;3.70;31.90
652;DHT22;310;48.490;9.200;2023-04-05T04:48:13;3.60;32.10
652;DHT22;310;48.490;9.200;2023-04-05T04:50:41;3.60;32.50
652;DHT22;310;48.490;9.200;2023-04-05T04:53:08;3.80;30.00
652;DHT22;310;48.490;9.200;2023-04-05T04:55:34;4.00;29.50
652;DHT22;310;48.490;9.200;2023-04-05T04:58:01;3.90;30.70
652;DHT22;310;48.490;9.200;2023-04-05T05:00:34;3.80;30.30
652;DHT22;310;48.490;9.200;2023-04-05T05:03:01;4.00;29.90
652;DHT22;310;48.490;9.200;2023-04-05T05:05:27;4.10;29.40
652;DHT22;310;48.490;9.200;2023-04-05T05:07:52;4.20;29.20
652;DHT22;310;48.490;9.200;2023-04-05T05:10:19;4.10;29.40
652;DHT22;310;48.490;9.200;2023-04-05T05:12:45;4.20;29.90
652;DHT22;310;48.490;9.200;2023-04-05T05:15:11;4.10;30.30
652;DHT22;310;48.490;9.200;2023-04-05T05:17:37;4.00;31.20
652;DHT22;310;48.490;9.200;2023-04-05T05:20:05;4.10;30.20
652;DHT22;310;48.490;9.200;2023-04-05T05:22:34;4.10;30.70
652;DHT22;310;48.490;9.200;2023-04-05T05:25:01;4.10;30.10
652;DHT22;310;48.490;9.200;2023-04-05T05:27:26;4.10;30.00
652;DHT22;310;48.490;9.200;2023-04-05T05:29:52;4.40;32.20
652;DHT22;310;48.490;9.200;2023-04-05T05:32:18;3.90;30.60
652;DHT22;310;48.490;9.200;2023-04-05T05:34:44;4.00;30.30
652;DHT22;310;48.490;9.200;2023-04-05T05:37:10;4.10;31.00
652;DHT22;310;48.490;9.200;2023-04-05T05:39:37;4.10;30.70
652;DHT22;310;48.490;9.200;2023-04-05T05:42:03;4.20;30.20
652;DHT22;310;48.490;9.200;2023-04-05T05:44:29;4.30;30.40
652;DHT22;310;48.490;9.200;2023-04-05T05:46:55;4.20;30.00
652;DHT22;310;48.490;9.200;2023-04-05T05:49:20;4.20;30.40
652;DHT22;310;48.490;9.200;2023-04-05T05:51:48;4.40;30.50
652;DHT22;310;48.490;9.200;2023-04-05T05:54:14;4.50;30.10
652;DHT22;310;48.490;9.200;2023-04-05T05:56:40;4.60;30.50
652;DHT22;310;48.490;9.200;2023-04-05T05:59:05;4.70;29.60
652;DHT22;310;48.490;9.200;2023-04-05T06:01:31;4.70;30.70
652;DHT22;310;48.490;9.200;2023-04-05T06:03:59;4.90;30.00
652;DHT22;310;48.490;9.200;2023-04-05T06:06:25;5.00;29.60
652;DHT22;310;48.490;9.200;2023-04-05T06:08:51;5.10;29.40
652;DHT22;310;48.490;9.200;2023-04-05T06:11:20;5.20;29.50
652;DHT22;310;48.490;9.200;2023-04-05T06:13:47;5.20;28.20
652;DHT22;310;48.490;9.200;2023-04-05T06:16:13;5.20;29.30
652;DHT22;310;48.490;9.200;2023-04-05T06:18:38;5.30;29.20
652;DHT22;310;48.490;9.200;2023-04-05T06:21:04;5.40;28.20
652;DHT22;310;48.490;9.200;2023-04-05T06:23:30;5.60;27.60
652;DHT22;310;48.490;9.200;2023-04-05T06:25:56;5.80;27.40
652;DHT22;310;48.490;9.200;2023-04-05T06:28:22;5.90;26.00
652;DHT22;310;48.490;9.200;2023-04-05T06:30:47;5.80;26.50
652;DHT22;310;48.490;9.200;2023-04-05T06:33:13;6.00;26.40
652;DHT22;310;48.490;9.200;2023-04-05T06:35:39;6.10;25.60
652;DHT22;310;48.490;9.200;2023-04-05T06:38:04;6.10;25.80
652;DHT22;310;48.490;9.200;2023-04-05T06:40:30;6.40;23.90
652;DHT22;310;48.490;9.200;2023-04-05T06:42:56;6.50;24.30
652;DHT22;310;48.490;9.200;2023-04-05T06:45:21;6.50;25.50
652;DHT22;310;48.490;9.200;2023-04-05T06:47:48;6.50;25.30
652;DHT22;310;48.490;9.200;2023-04-05T06:50:13;6.70;25.50
652;DHT22;310;48.490;9.200;2023-04-05T06:52:39;6.60;25.30
652;DHT22;310;48.490;9.200;2023-04-05T06:55:05;6.50;24.80
652;DHT22;310;48.490;9.200;2023-04-05T06:57:30;5.90;25.10
652;DHT22;310;48.490;9.200;2023-04-05T06:59:56;6.20;25.10
652;DHT22;310;48.490;9.200;2023-04-05T07:02:22;6.60;25.40
652;DHT22;310;48.490;9.200;2023-04-05T07:04:48;6.90;24.30
652;DHT22;310;48.490;9.200;2023-04-05T07:07:14;7.00;24.00
652;DHT22;310;48.490;9.200;2023-04-05T07:09:40;7.00;23.90
652;DHT22;310;48.490;9.200;2023-04-05T07:12:07;6.90;24.70
652;DHT22;310;48.490;9.200;2023-04-05T07:14:34;6.20;25.60
652;DHT22;310;48.490;9.200;2023-04-05T07:17:01;5.90;26.50
652;DHT22;310;48.490;9.200;2023-04-05T07:19:27;5.90;26.60
652;DHT22;310;48.490;9.200;2023-04-05T07:21:54;5.60;27.30
652;DHT22;310;48.490;9.200;2023-04-05T07:24:19;5.40;28.70
652;DHT22;310;48.490;9.200;2023-04-05T07:26:45;5.50;28.60
652;DHT22;310;48.490;9.200;2023-04-05T07:29:11;5.70;26.90
652;DHT22;310;48.490;9.200;2023-04-05T07:31:38;5.90;27.70
652;DHT22;310;48.490;9.200;2023-04-05T07:34:04;6.30;27.30
652;DHT22;310;48.490;9.200;2023-04-05T07:36:30;6.70;25.70
652;DHT22;310;48.490;9.200;2023-04-05T07:38:56;6.10;26.90
652;DHT22;310;48.490;9.200;2023-04-05T07:41:24;5.80;26.10
652;DHT22;310;48.490;9.200;2023-04-05T07:43:50;6.10;27.60
652;DHT22;310;48.490;9.200;2023-04-05T07:46:15;6.60;26.70
652;DHT22;310;48.490;9.200;2023-04-05T07:48:41;6.80;25.20
652;DHT22;310;48.490;9.200;2023-04-05T07:51:08;6.30;26.00
652;DHT22;310;48.490;9.200;2023-04-05T07:53:35;6.30;26.20
652;DHT22;310;48.490;9.200;2023-04-05T07:56:05;6.90;25.40
652;DHT22;310;48.490;9.200;2023-04-05T07:58:31;7.20;25.80
652;DHT22;310;48.490;9.200;2023-04-05T08:01:01;6.60;25.80
652;DHT22;310;48.490;9.200;2023-04-05T08:03:28;6.90;27.00
652;DHT22;310;48.490;9.200;2023-04-05T08:05:55;7.60;25.40
652;DHT22;310;48.490;9.200;2023-04-05T08:08:22;7.30;24.60
652;DHT22;310;48.490;9.200;2023-04-05T08:10:48;7.30;25.00
652;DHT22;310;48.490;9.200;2023-04-05T08:13:13;7.00;25.90
652;DHT22;310;48.490;9.200;2023-04-05T08:15:39;7.10;25.10
652;DHT22;310;48.490;9.200;2023-04-05T08:18:05;7.50;26.10
652;DHT22;310;48.490;9.200;2023-04-05T08:20:31;8.20;23.80
652;DHT22;310;48.490;9.200;2023-04-05T08:22:57;8.30;23.70
652;DHT22;310;48.490;9.200;2023-04-05T08:25:23;7.80;23.10
652;DHT22;310;48.490;9.200;2023-04-05T08:27:49;7.30;24.30
652;DHT22;310;48.490;9.200;2023-04-05T08:30:14;7.30;23.90
652;DHT22;310;48.490;9.200;2023-04-05T08:32:41;7.70;23.60
652;DHT22;310;48.490;9.200;2023-04-05T08:35:06;7.80;23.30
652;DHT22;310;48.490;9.200;2023-04-05T08:37:35;7.40;23.00
652;DHT22;310;48.490;9.200;2023-04-05T08:40:02;7.40;23.80
652;DHT22;310;48.490;9.200;2023-04-05T08:42:35;7.80;21.90
652;DHT22;310;48.490;9.200;2023-04-05T08:45:09;7.70;22.70
652;DHT22;310;48.490;9.200;2023-04-05T08:47:36;7.30;23.00
652;DHT22;310;48.490;9.200;2023-04-05T08:50:03;7.30;23.50
652;DHT22;310;48.490;9.200;2023-04-05T08:52:31;7.30;23.20
652;DHT22;310;48.490;9.200;2023-04-05T08:54:57;7.50;22.60
652;DHT22;310;48.490;9.200;2023-04-05T08:57:28;8.00;21.60
652;DHT22;310;48.490;9.200;2023-04-05T08:59:56;8.00;21.50
652;DHT22;310;48.490;9.200;2023-04-05T09:02:24;8.20;20.80
652;DHT22;310;48.490;9.200;2023-04-05T09:04:50;7.90;22.10
652;DHT22;310;48.490;9.200;2023-04-05T09:07:17;8.30;21.20
652;DHT22;310;48.490;9.200;2023-04-05T09:09:51;8.10;21.20
652;DHT22;310;48.490;9.200;2023-04-05T09:12:20;8.90;20.90
652;DHT22;310;48.490;9.200;2023-04-05T09:14:48;9.20;19.00
652;DHT22;310;48.490;9.200;2023-04-05T09:17:16;8.50;19.60
652;DHT22;310;48.490;9.200;2023-04-05T09:19:42;8.80;20.20
652;DHT22;310;48.490;9.200;2023-04-05T09:22:09;9.40;19.80
652;DHT22;310;48.490;9.200;2023-04-05T09:24:43;9.20;18.30
652;DHT22;310;48.490;9.200;2023-04-05T09:27:11;9.30;18.90
652;DHT22;310;48.490;9.200;2023-04-05T09:29:38;8.90;17.80
652;DHT22;310;48.490;9.200;2023-04-05T09:32:06;9.20;19.00
652;DHT22;310;48.490;9.200;2023-04-05T09:34:33;10.00;18.60
652;DHT22;310;48.490;9.200;2023-04-05T09:37:01;10.70;18.30
652;DHT22;310;48.490;9.200;2023-04-05T09:39:28;11.10;16.60
652;DHT22;310;48.490;9.200;2023-04-05T09:42:11;11.00;16.00
652;DHT22;310;48.490;9.200;2023-04-05T09:44:56;11.00;16.10
652;DHT22;310;48.490;9.200;2023-04-05T09:47:27;10.70;14.70
652;DHT22;310;48.490;9.200;2023-04-05T09:49:59;10.40;16.20
652;DHT22;310;48.490;9.200;2023-04-05T09:52:29;9.70;17.00
652;DHT22;310;48.490;9.200;2023-04-05T09:55:01;9.60;17.20
652;DHT22;310;48.490;9.200;2023-04-05T09:57:27;9.50;16.90
652;DHT22;310;48.490;9.200;2023-04-05T09:59:56;9.10;16.80
652;DHT22;310;48.490;9.200;2023-04-05T10:02:23;9.00;17.40
652;DHT22;310;48.490;9.200;2023-04-05T10:04:49;9.20;18.00
652;DHT22;310;48.490;9.200;2023-04-05T10:07:17;10.10;17.60
652;DHT22;310;48.490;9.200;2023-04-05T10:09:46;10.70;15.90
652;DHT22;310;48.490;9.200;2023-04-05T10:12:25;11.10;15.20
652;DHT22;310;48.490;9.200;2023-04-05T10:14:51;10.70;14.60
652;DHT22;310;48.490;9.200;2023-04-05T10:17:28;11.40;15.10
652;DHT22;310;48.490;9.200;2023-04-05T10:22:42;12.30;14.90
652;DHT22;310;48.490;9.200;2023-04-05T10:27:55;12.50;13.60
652;DHT22;310;48.490;9.200;2023-04-05T10:30:28;13.00;14.20
652;DHT22;310;48.490;9.200;2023-04-05T10:35:59;12.10;15.90
652;DHT22;310;48.490;9.200;2023-04-05T10:41:17;12.10;14.50
652;DHT22;310;48.490;9.200;2023-04-05T10:43:45;12.50;14.30
652;DHT22;310;48.490;9.200;2023-04-05T10:46:10;12.10;12.70
652;DHT22;310;48.490;9.200;2023-04-05T10:48:55;12.00;14.10
652;DHT22;310;48.490;9.200;2023-04-05T10:51:23;11.80;14.30
652;DHT22;310;48.490;9.200;2023-04-05T10:53:51;13.50;14.00
652;DHT22;310;48.490;9.200;2023-04-05T10:56:18;14.30;12.50
652;DHT22;310;48.490;9.200;2023-04-05T10:58:45;13.60;12.30
652;DHT22;310;48.490;9.200;2023-04-05T11:01:12;13.80;11.90
652;DHT22;310;48.490;9.200;2023-04-05T11:06:21;15.40;10.20
652;DHT22;310;48.490;9.200;2023-04-05T11:08:49;13.60;11.10
652;DHT22;310;48.490;9.200;2023-04-05T11:11:17;14.70;11.00
652;DHT22;310;48.490;9.200;2023-04-05T11:13:56;15.80;10.70
652;DHT22;310;48.490;9.200;2023-04-05T11:16:37;17.40;9.30
652;DHT22;310;48.490;9.200;2023-04-05T11:19:03;18.10;9.60
652;DHT22;310;48.490;9.200;2023-04-05T11:21:30;18.20;9.40
652;DHT22;310;48.490;9.200;2023-04-05T11:26:55;18.40;8.70
652;DHT22;310;48.490;9.200;2023-04-05T11:29:45;19.30;9.10
652;DHT22;310;48.490;9.200;2023-04-05T11:32:12;19.40;8.90
652;DHT22;310;48.490;9.200;2023-04-05T11:34:41;18.90;7.90
652;DHT22;310;48.490;9.200;2023-04-05T11:37:07;18.90;6.80
652;DHT22;310;48.490;9.200;2023-04-05T11:39:32;19.50;8.30
652;DHT22;310;48.490;9.200;2023-04-05T11:42:03;19.20;6.90
652;DHT22;310;48.490;9.200;2023-04-05T11:44:49;19.20;9.40
652;DHT22;310;48.490;9.200;2023-04-05T11:47:18;20.70;5.30
652;DHT22;310;48.490;9.200;2023-04-05T11:49:49;22.20;6.10
652;DHT22;310;48.490;9.200;2023-04-05T11:52:17;20.70;4.60
652;DHT22;310;48.490;9.200;2023-04-05T11:54:44;18.50;8.10
652;DHT22;310;48.490;9.200;2023-04-05T11:57:21;17.30;7.30
652;DHT22;310;48.490;9.200;2023-04-05T11:59:52;18.00;10.80
652;DHT22;310;48.490;9.200;2023-04-05T12:02:18;20.40;7.80
652;DHT22;310;48.490;9.200;2023-04-05T12:04:53;21.20;8.00
652;DHT22;310;48.490;9.200;2023-04-05T12:07:19;21.40;6.80
652;DHT22;310;48.490;9.200;2023-04-05T12:09:58;21.50;5.20
652;DHT22;310;48.490;9.200;2023-04-05T12:12:24;21.20;7.30
652;DHT22;310;48.490;9.200;2023-04-05T12:14:49;20.90;6.60
652;DHT22;310;48.490;9.200;2023-04-05T12:17:15;19.70;5.50
652;DHT22;310;48.490;9.200;2023-04-05T12:19:41;19.20;7.60
652;DHT22;310;48.490;9.200;2023-04-05T12:22:07;19.10;7.10
652;DHT22;310;48.490;9.200;2023-04-05T12:24:33;20.70;7.60
652;DHT22;310;48.490;9.200;2023-04-05T12:26:59;20.70;5.80
652;DHT22;310;48.490;9.200;2023-04-05T12:29:25;20.10;6.00
652;DHT22;310;48.490;9.200;2023-04-05T12:31:51;19.30;7.80
652;DHT22;310;48.490;9.200;2023-04-05T12:34:23;19.30;5.70
652;DHT22;310;48.490;9.200;2023-04-05T12:36:50;19.10;7.20
652;DHT22;310;48.490;9.200;2023-04-05T12:39:16;19.30;6.30
652;DHT22;310;48.490;9.200;2023-04-05T12:41:42;19.70;6.50
652;DHT22;310;48.490;9.200;2023-04-05T12:44:14;20.10;5.20
652;DHT22;310;48.490;9.200;2023-04-05T12:46:44;19.70;8.30
652;DHT22;310;48.490;9.200;2023-04-05T12:49:18;21.00;5.40
652;DHT22;310;48.490;9.200;2023-04-05T12:51:45;23.00;5.10
652;DHT22;310;48.490;9.200;2023-04-05T12:54:23;24.00;3.50
652;DHT22;310;48.490;9.200;2023-04-05T12:56:50;24.70;4.70
652;DHT22;310;48.490;9.200;2023-04-05T12:59:17;23.20;4.10
652;DHT22;310;48.490;9.200;2023-04-05T13:01:43;24.60;3.50
652;DHT22;310;48.490;9.200;2023-04-05T13:04:08;24.70;4.10
652;DHT22;310;48.490;9.200;2023-04-05T13:06:34;23.30;3.00
652;DHT22;310;48.490;9.200;2023-04-05T13:08:59;22.80;6.40
652;DHT22;310;48.490;9.200;2023-04-05T13:11:25;23.20;4.40
652;DHT22;310;48.490;9.200;2023-04-05T13:13:51;23.90;4.40
652;DHT22;310;48.490;9.200;2023-04-05T13:16:16;25.10;4.00
652;DHT22;310;48.490;9.200;2023-04-05T13:18:42;25.70;2.30
652;DHT22;310;48.490;9.200;2023-04-05T13:21:09;25.70;3.40
652;DHT22;310;48.490;9.200;2023-04-05T13:23:36;26.40;2.90
652;DHT22;310;48.490;9.200;2023-04-05T13:26:02;25.10;1.40
652;DHT22;310;48.490;9.200;2023-04-05T13:28:28;23.40;3.60
652;DHT22;310;48.490;9.200;2023-04-05T13:30:54;20.60;6.80
652;DHT22;310;48.490;9.200;2023-04-05T13:33:20;21.00;4.80
652;DHT22;310;48.490;9.200;2023-04-05T13:35:46;22.90;7.20
652;DHT22;310;48.490;9.200;2023-04-05T13:38:12;21.60;4.30
652;DHT22;310;48.490;9.200;2023-04-05T13:40:38;21.20;7.10
652;DHT22;310;48.490;9.200;2023-04-05T13:43:03;23.80;3.80
652;DHT22;310;48.490;9.200;2023-04-05T13:45:29;25.40;4.10
652;DHT22;310;48.490;9.200;2023-04-05T13:47:56;26.30;1.00
652;DHT22;310;48.490;9.200;2023-04-05T13:50:22;24.80;1.70
652;DHT22;310;48.490;9.200;2023-04-05T13:52:48;24.50;4.10
652;DHT22;310;48.490;9.200;2023-04-05T13:55:14;26.00;1.80
652;DHT22;310;48.490;9.200;2023-04-05T13:57:39;25.70;1.10
652;DHT22;310;48.490;9.200;2023-04-05T14:00:05;25.40;1.00
652;DHT22;310;48.490;9.200;2023-04-05T14:02:31;26.10;2.00
652;DHT22;310;48.490;9.200;2023-04-05T14:04:57;26.90;1.30
652;DHT22;310;48.490;9.200;2023-04-05T14:07:23;24.30;1.90
652;DHT22;310;48.490;9.200;2023-04-05T14:09:48;25.10;4.00
652;DHT22;310;48.490;9.200;2023-04-05T14:12:14;25.60;1.40
652;DHT22;310;48.490;9.200;2023-04-05T14:14:40;25.00;1.60
652;DHT22;310;48.490;9.200;2023-04-05T14:17:06;25.00;3.50
652;DHT22;310;48.490;9.200;2023-04-05T14:19:32;26.80;2.40
652;DHT22;310;48.490;9.200;2023-04-05T14:21:57;27.50;1.00
652;DHT22;310;48.490;9.200;2023-04-05T14:24:23;27.10;1.80
652;DHT22;310;48.490;9.200;2023-04-05T14:26:49;26.60;2.10
652;DHT22;310;48.490;9.200;2023-04-05T14:29:15;27.20;2.30
652;DHT22;310;48.490;9.200;2023-04-05T14:31:42;28.50;1.00
652;DHT22;310;48.490;9.200;2023-04-05T14:34:07;29.10;1.00
652;DHT22;310;48.490;9.200;2023-04-05T14:36:33;28.60;1.00
652;DHT22;310;48.490;9.200;2023-04-05T14:38:59;28.30;1.00
652;DHT22;310;48.490;9.200;2023-04-05T14:41:24;26.80;1.00
652;DHT22;310;48.490;9.200;2023-04-05T14:43:52;26.70;1.00
652;DHT22;310;48.490;9.200;2023-04-05T14:46:17;27.50;1.00
652;DHT22;310;48.490;9.200;2023-04-05T14:48:43;27.10;1.00
652;DHT22;310;48.490;9.200;2023-04-05T14:51:09;26.20;1.30
652;DHT22;310;48.490;9.200;2023-04-05T14:53:35;25.10;2.30
652;DHT22;310;48.490;9.200;2023-04-05T14:56:01;26.20;2.00
652;DHT22;310;48.490;9.200;2023-04-05T14:58:27;26.20;2.00
652;DHT22;310;48.490;9.200;2023-04-05T15:00:54;25.20;1.20
652;DHT22;310;48.490;9.200;2023-04-05T15:03:20;23.50;2.00
652;DHT22;310;48.490;9.200;2023-04-05T15:05:47;20.20;4.50
652;DHT22;310;48.490;9.200;2023-04-05T15:08:13;19.60;4.00
652;DHT22;310;48.490;9.200;2023-04-05T15:10:39;18.70;4.40
652;DHT22;310;48.490;9.200;2023-04-05T15:13:07;17.30;5.60
652;DHT22;310;48.490;9.200;2023-04-05T15:15:33;17.10;7.00
652;DHT22;310;48.490;9.200;2023-04-05T15:17:58;16.40;7.10
652;DHT22;310;48.490;9.200;2023-04-05T15:20:25;16.80;7.80
652;DHT22;310;48.490;9.200;2023-04-05T15:22:51;16.60;6.70
652;DHT22;310;48.490;9.200;2023-04-05T15:25:16;16.50;8.00
652;DHT22;310;48.490;9.200;2023-04-05T15:27:42;16.30;7.10
652;DHT22;310;48.490;9.200;2023-04-05T15:30:08;15.80;7.90
652;DHT22;310;48.490;9.200;2023-04-05T15:32:34;16.00;7.40
652;DHT22;310;48.490;9.200;2023-04-05T15:35:00;15.90;9.60
652;DHT22;310;48.490;9.200;2023-04-05T15:37:26;15.70;7.50
652;DHT22;310;48.490;9.200;2023-04-05T15:39:52;15.20;7.80
652;DHT22;310;48.490;9.200;2023-04-05T15:42:18;15.60;7.10
652;DHT22;310;48.490;9.200;2023-04-05T15:44:48;15.30;8.00
652;DHT22;310;48.490;9.200;2023-04-05T15:47:15;15.00;8.60
652;DHT22;310;48.490;9.200;2023-04-05T15:49:40;14.90;9.60
652;DHT22;310;48.490;9.200;2023-04-05T15:52:08;15.00;8.00
652;DHT22;310;48.490;9.200;2023-04-05T15:54:34;15.30;8.10
652;DHT22;310;48.490;9.200;2023-04-05T15:57:00;14.90;8.60
652;DHT22;310;48.490;9.200;2023-04-05T15:59:26;14.80;9.40
652;DHT22;310;48.490;9.200;2023-04-05T16:01:52;15.00;8.30
652;DHT22;310;48.490;9.200;2023-04-05T16:04:18;14.50;8.80
652;DHT22;310;48.490;9.200;2023-04-05T16:06:44;14.80;8.50
652;DHT22;310;48.490;9.200;2023-04-05T16:09:10;14.50;9.00
652;DHT22;310;48.490;9.200;2023-04-05T16:11:35;13.30;9.80
652;DHT22;310;48.490;9.200;2023-04-05T16:14:02;13.90;9.60
652;DHT22;310;48.490;9.200;2023-04-05T16:16:27;13.90;9.10
652;DHT22;310;48.490;9.200;2023-04-05T16:18:53;14.30;10.50
652;DHT22;310;48.490;9.200;2023-04-05T16:21:19;14.40;8.20
652;DHT22;310;48.490;9.200;2023-04-05T16:23:45;14.50;8.80
652;DHT22;310;48.490;9.200;2023-04-05T16:26:11;14.70;8.80
652;DHT22;310;48.490;9.200;2023-04-05T16:28:38;14.70;8.50
652;DHT22;310;48.490;9.200;2023-04-05T16:31:03;15.20;11.30
652;DHT22;310;48.490;9.200;2023-04-05T16:33:29;15.30;8.40
652;DHT22;310;48.490;9.200;2023-04-05T16:35:55;16.00;8.50
652;DHT22;310;48.490;9.200;2023-04-05T16:38:21;17.10;7.30
652;DHT22;310;48.490;9.200;2023-04-05T16:40:46;18.30;7.30
652;DHT22;310;48.490;9.200;2023-04-05T16:43:12;18.50;5.40
652;DHT22;310;48.490;9.200;2023-04-05T16:45:37;19.10;6.50
652;DHT22;310;48.490;9.200;2023-04-05T16:48:04;19.80;5.00
652;DHT22;310;48.490;9.200;2023-04-05T16:50:29;20.20;6.10
652;DHT22;310;48.490;9.200;2023-04-05T16:52:55;20.60;5.40
652;DHT22;310;48.490;9.200;2023-04-05T16:55:21;21.00;5.80
652;DHT22;310;48.490;9.200;2023-04-05T16:57:46;19.60;3.80
652;DHT22;310;48.490;9.200;2023-04-05T17:00:12;18.60;5.00
652;DHT22;310;48.490;9.200;2023-04-05T17:02:38;18.10;6.40
652;DHT22;310;48.490;9.200;2023-04-05T17:05:04;18.50;4.00
652;DHT22;310;48.490;9.200;2023-04-05T17:07:30;17.50;3.80
652;DHT22;310;48.490;9.200;2023-04-05T17:09:56;16.60;7.80
652;DHT22;310;48.490;9.200;2023-04-05T17:12:22;15.70;5.60
652;DHT22;310;48.490;9.200;2023-04-05T17:14:48;15.70;5.40
652;DHT22;310;48.490;9.200;2023-04-05T17:17:14;15.50;7.40